createdAt,value
2019-05-07T04:01:59.364Z,4.200745
2019-05-07T04:05:30.287Z,4.170532
2019-05-07T04:09:03.441Z,4.230957
2019-05-07T04:12:34.204Z,4.261169
2019-05-07T04:16:03.957Z,4.261169
2019-05-07T04:19:34.146Z,4.341736
2019-05-07T04:23:04.513Z,4.351807
2019-05-07T04:26:34.119Z,4.39209
2019-05-07T04:30:04.101Z,4.412231
2019-05-07T04:33:34.043Z,4.432373
2019-05-07T04:37:03.983Z,4.492798
2019-05-07T04:40:34.027Z,4.603577
2019-05-07T04:44:04.026Z,4.664001
2019-05-07T04:47:42.377Z,4.633789
2019-05-07T04:51:08.759Z,4.694214
2019-05-07T04:54:39.707Z,4.815063
2019-05-07T04:58:09.229Z,5.117188
2019-05-07T05:01:43.370Z,5.358887
2019-05-07T05:05:12.834Z,5.389099
2019-05-07T05:08:43.451Z,5.580444
2019-05-07T05:12:13.527Z,5.620728
2019-05-07T05:15:43.471Z,5.661011
2019-05-07T05:19:13.432Z,5.52002
2019-05-07T05:22:43.387Z,5.298462
2019-05-07T05:26:13.354Z,5.207825
2019-05-07T05:29:43.316Z,5.288391
2019-05-07T05:33:13.267Z,5.52002
2019-05-07T05:36:43.379Z,5.77179
2019-05-07T05:40:13.329Z,4.694214
2019-05-07T05:43:43.319Z,4.422302
2019-05-07T05:47:13.258Z,4.311523
2019-05-07T05:50:43.209Z,4.412231
2019-05-07T05:54:12.751Z,4.573364
2019-05-07T05:57:42.457Z,4.664001
2019-05-07T06:01:13.052Z,4.966125
2019-05-07T06:04:43.031Z,5.207825
2019-05-07T06:08:17.127Z,5.469666
2019-05-07T06:11:44.928Z,5.661011
2019-05-07T06:15:14.875Z,5.65094
2019-05-07T06:18:44.822Z,5.721436
2019-05-07T06:22:16.679Z,5.852356
2019-05-07T06:25:45.706Z,5.983276
2019-05-07T06:29:15.750Z,5.912781
2019-05-07T06:32:48.657Z,6.094055
2019-05-07T06:36:21.775Z,6.305542
2019-05-07T06:39:52.777Z,6.396179
2019-05-07T06:43:22.443Z,6.5271
2019-05-07T06:46:52.671Z,6.607666
2019-05-07T06:50:22.053Z,6.698303
2019-05-07T06:53:51.826Z,6.647949
2019-05-07T06:57:22.204Z,6.78894
2019-05-07T07:00:52.705Z,6.77887
2019-05-07T07:04:22.540Z,6.849365
2019-05-07T07:07:52.457Z,6.678162
2019-05-07T07:11:22.389Z,6.335754
2019-05-07T07:14:52.088Z,5.932922
2019-05-07T07:18:23.234Z,5.802002
2019-05-07T07:21:53.016Z,5.942993
2019-05-07T07:25:23.522Z,6.053772
2019-05-07T07:28:53.457Z,6.245117
2019-05-07T07:32:23.395Z,6.517029
2019-05-07T07:35:53.338Z,6.809082
2019-05-07T07:39:23.277Z,6.970215
2019-05-07T07:42:53.258Z,7.16156
2019-05-07T07:46:22.088Z,7.191772
2019-05-07T07:49:52.686Z,7.211914
2019-05-07T07:53:22.765Z,7.312622
2019-05-07T07:56:53.720Z,7.463684
2019-05-07T08:00:26.051Z,7.604675
2019-05-07T08:03:56.007Z,7.987366
2019-05-07T08:07:25.967Z,8.138428
2019-05-07T08:10:55.925Z,8.047791
2019-05-07T08:14:25.859Z,7.866516
2019-05-07T08:17:55.807Z,7.876587
2019-05-07T08:21:25.767Z,8.017578
2019-05-07T08:24:55.764Z,8.138428
2019-05-07T08:28:27.322Z,8.309631
2019-05-07T08:31:58.269Z,8.682251
2019-05-07T08:35:29.217Z,8.722534
2019-05-07T08:39:02.099Z,8.138428
2019-05-07T08:42:29.271Z,7.836304
2019-05-07T08:46:02.473Z,7.262268
2019-05-07T08:49:36.617Z,7.131348
2019-05-07T08:53:05.006Z,7.181702
2019-05-07T08:56:34.962Z,7.604675
2019-05-07T09:00:04.641Z,8.198853
2019-05-07T09:03:33.902Z,8.088074
2019-05-07T09:07:03.846Z,7.554321
2019-05-07T09:10:33.805Z,7.624817
2019-05-07T09:14:03.744Z,8.098145
2019-05-07T09:17:33.679Z,8.551331
2019-05-07T09:21:04.641Z,8.551331
2019-05-07T09:24:34.597Z,9.115295
2019-05-07T09:28:04.520Z,9.256287
2019-05-07T09:31:34.484Z,8.813171
2019-05-07T09:35:04.506Z,8.772888
2019-05-07T09:38:32.820Z,9.407349
2019-05-07T09:42:02.420Z,9.850464
2019-05-07T09:45:32.797Z,9.477844
2019-05-07T09:49:03.053Z,8.934021
2019-05-07T09:52:32.374Z,8.833313
2019-05-07T09:56:02.107Z,9.437561
2019-05-07T09:59:32.457Z,9.236145
2019-05-07T10:03:02.213Z,9.397278
2019-05-07T10:06:32.246Z,9.17572
2019-05-07T10:10:03.113Z,8.883667
2019-05-07T10:13:33.148Z,9.729614
2019-05-07T10:17:03.018Z,9.850464
2019-05-07T10:20:32.989Z,10.102234
2019-05-07T10:24:02.932Z,10.283508
2019-05-07T10:27:32.961Z,10.021667
2019-05-07T10:31:02.924Z,9.830322
2019-05-07T10:34:30.876Z,9.880676
2019-05-07T10:38:01.915Z,10.30365
2019-05-07T10:41:31.957Z,10.43457
2019-05-07T10:45:03.052Z,11.43158
2019-05-07T10:48:32.692Z,11.5625
2019-05-07T10:52:02.133Z,11.985474
2019-05-07T10:55:32.735Z,12.176819
2019-05-07T10:59:02.939Z,12.358093
2019-05-07T11:02:32.616Z,12.287598
2019-05-07T11:06:02.670Z,12.227173
2019-05-07T11:09:32.843Z,13.204041
2019-05-07T11:13:02.682Z,13.788147
2019-05-07T11:16:32.552Z,14.110413
2019-05-07T11:20:02.596Z,14.281616
2019-05-07T11:23:32.863Z,14.180908
2019-05-07T11:27:02.579Z,14.855652
2019-05-07T11:30:32.027Z,14.593811
2019-05-07T11:34:02.730Z,14.694519
2019-05-07T11:37:32.559Z,13.57666
2019-05-07T11:41:02.528Z,14.130554
2019-05-07T11:44:32.474Z,13.878784
2019-05-07T11:48:01.867Z,13.596802
2019-05-07T11:51:33.631Z,14.402466
2019-05-07T11:55:03.369Z,14.301758
2019-05-07T11:58:33.362Z,14.734802
2019-05-07T12:02:03.351Z,14.845581
2019-05-07T12:05:33.383Z,15.046997
2019-05-07T12:09:03.302Z,14.58374
2019-05-07T12:12:33.280Z,13.979492
2019-05-07T12:16:03.278Z,14.281616
2019-05-07T12:19:33.253Z,14.130554
2019-05-07T12:23:03.238Z,13.063049
2019-05-07T12:26:31.207Z,13.395386
2019-05-07T12:30:01.168Z,12.801208
2019-05-07T12:33:32.454Z,13.052979
2019-05-07T12:37:04.066Z,13.395386
2019-05-07T12:40:34.059Z,13.44574
2019-05-07T12:44:03.048Z,13.727722
2019-05-07T12:47:33.028Z,13.44574
2019-05-07T12:51:03.022Z,13.818359
2019-05-07T12:54:36.142Z,13.878784
2019-05-07T12:58:04.943Z,14.009705
2019-05-07T13:01:34.913Z,13.667297
2019-05-07T13:05:05.490Z,13.415527
2019-05-07T13:08:36.273Z,13.526306
2019-05-07T13:12:07.241Z,13.898926
2019-05-07T13:15:37.363Z,13.707581
2019-05-07T13:19:08.492Z,13.596802
2019-05-07T13:22:37.433Z,13.627014
2019-05-07T13:26:08.391Z,13.727722
2019-05-07T13:29:38.368Z,13.606873
2019-05-07T13:33:12.170Z,13.848572
2019-05-07T13:36:41.422Z,13.677368
2019-05-07T13:40:09.383Z,13.747864
2019-05-07T13:43:41.341Z,13.506165
2019-05-07T13:47:12.532Z,13.415527
2019-05-07T13:50:42.310Z,13.455811
2019-05-07T13:54:12.903Z,13.677368
2019-05-07T13:57:42.348Z,13.747864
2019-05-07T14:01:12.310Z,13.929138
2019-05-07T14:04:42.348Z,13.979492
2019-05-07T14:08:14.188Z,14.029846
2019-05-07T14:11:43.327Z,13.959351
2019-05-07T14:15:13.265Z,13.747864
2019-05-07T14:18:42.273Z,13.717651
2019-05-07T14:22:16.002Z,13.486023
2019-05-07T14:25:46.139Z,13.214111
2019-05-07T14:29:16.243Z,12.619934
2019-05-07T14:32:46.181Z,12.770996
2019-05-07T14:36:15.133Z,12.871704
2019-05-07T14:39:45.087Z,12.962341
2019-05-07T14:43:15.059Z,12.962341
2019-05-07T14:46:50.717Z,12.831421
2019-05-07T14:50:18.984Z,13.294678
2019-05-07T14:53:49.953Z,13.44574
2019-05-07T14:57:21.954Z,13.717651
2019-05-07T15:00:51.811Z,13.878784
2019-05-07T15:04:22.125Z,13.908997
2019-05-07T15:07:51.890Z,13.999634
2019-05-07T15:11:24.780Z,14.029846
2019-05-07T15:14:53.735Z,13.778076
2019-05-07T15:18:23.779Z,13.929138
2019-05-07T15:21:53.876Z,13.32489
2019-05-07T15:25:23.826Z,13.57666
2019-05-07T15:28:53.773Z,13.385315
2019-05-07T15:32:21.916Z,13.022766
2019-05-07T15:35:52.184Z,12.791138
2019-05-07T15:39:22.236Z,12.720642
2019-05-07T15:42:52.470Z,13.19397
2019-05-07T15:46:22.674Z,13.506165
2019-05-07T15:49:52.665Z,13.999634
2019-05-07T15:53:22.903Z,13.969421
2019-05-07T15:56:52.907Z,13.345032
2019-05-07T16:00:22.864Z,12.932129
2019-05-07T16:03:54.767Z,12.619934
2019-05-07T16:07:23.835Z,12.408447
2019-05-07T16:10:53.092Z,12.710571
2019-05-07T16:14:26.160Z,12.871704
2019-05-07T16:17:54.856Z,13.093262
2019-05-07T16:21:24.818Z,14.211121
2019-05-07T16:24:54.773Z,13.506165
2019-05-07T16:28:23.870Z,12.811279
2019-05-07T16:31:53.882Z,13.052979
2019-05-07T16:35:24.465Z,13.113403
2019-05-07T16:38:54.457Z,14.190979
2019-05-07T16:42:24.400Z,14.613953
2019-05-07T16:45:54.443Z,14.613953
2019-05-07T16:49:25.384Z,14.634094
2019-05-07T16:52:55.338Z,14.885864
2019-05-07T16:56:25.296Z,14.865723
2019-05-07T16:59:55.273Z,14.885864
2019-05-07T17:05:12.133Z,14.986572
2019-05-07T17:08:42.300Z,14.845581
2019-05-07T17:12:11.928Z,15.258484
2019-05-07T17:15:41.879Z,15.198059
2019-05-07T17:19:11.999Z,14.221191
2019-05-07T17:22:42.701Z,13.677368
2019-05-07T17:26:11.927Z,13.606873
2019-05-07T17:29:42.893Z,13.486023
2019-05-07T17:33:13.035Z,12.982483
2019-05-07T17:36:42.892Z,12.69043
2019-05-07T17:40:12.883Z,12.539368
2019-05-07T17:43:40.856Z,12.257385
2019-05-07T17:47:12.705Z,12.106323
2019-05-07T17:50:42.660Z,12.166748
2019-05-07T17:54:13.063Z,11.965332
2019-05-07T18:31:03.556Z,10.213013
2019-05-07T18:34:32.037Z,10.162659
2019-05-07T18:38:02.575Z,10.021667
2019-05-07T21:06:13.625Z,5.671082
2019-05-07T21:09:42.225Z,5.540161
2019-05-07T21:13:26.367Z,5.540161
2019-05-07T21:16:46.548Z,5.439453
2019-05-07T21:20:17.472Z,5.328674
2019-05-07T21:23:48.406Z,5.288391
2019-05-07T21:27:17.346Z,5.26825
2019-05-07T21:30:47.289Z,5.26825
2019-05-07T21:34:18.337Z,5.217896
2019-05-07T21:37:49.274Z,5.187683
2019-05-07T21:41:22.562Z,5.26825
2019-05-07T21:44:52.707Z,5.328674
2019-05-07T21:48:23.266Z,5.217896
2019-05-07T21:51:54.580Z,5.036621
2019-05-07T21:55:24.153Z,4.935913
2019-05-07T21:58:54.242Z,4.905701
